sensor_id;sensor_type;location;lat;lon;timestamp;pressure;altitude;pressure_sealevel;temperature;humidity
4273;BME280;63887;53.656;9.810;2023-04-25T00:01:34;100427.41;;;8.50;91.10
4273;BME280;63887;53.656;9.810;2023-04-25T00:04:01;100432.25;;;8.74;89.23
4273;BME280;63887;53.656;9.810;2023-04-25T00:06:28;100429.00;;;8.53;91.07
4273;BME280;63887;53.656;9.810;2023-04-25T00:08:56;100426.97;;;8.58;88.90
4273;BME280;63887;53.656;9.810;2023-04-25T00:11:22;100432.06;;;8.44;86.93
4273;BME280;63887;53.656;9.810;2023-04-25T00:13:49;100435.59;;;8.60;86.79
4273;BME280;63887;53.656;9.810;2023-04-25T00:16:16;100438.47;;;8.38;87.09
4273;BME280;63887;53.656;9.810;2023-04-25T00:18:43;100431.38;;;8.57;85.87
4273;BME280;63887;53.656;9.810;2023-04-25T00:21:11;100445.44;;;8.20;86.92
4273;BME280;63887;53.656;9.810;2023-04-25T00:23:37;100448.25;;;8.34;87.16
4273;BME280;63887;53.656;9.810;2023-04-25T00:26:05;100447.16;;;8.39;85.45
4273;BME280;63887;53.656;9.810;2023-04-25T00:28:32;100444.53;;;8.39;84.40
4273;BME280;63887;53.656;9.810;2023-04-25T00:30:59;100450.34;;;8.26;84.58
4273;BME280;63887;53.656;9.810;2023-04-25T00:33:25;100447.81;;;8.25;85.77
4273;BME280;63887;53.656;9.810;2023-04-25T00:35:52;100450.66;;;8.20;84.78
4273;BME280;63887;53.656;9.810;2023-04-25T00:38:18;100450.59;;;8.22;83.58
4273;BME280;63887;53.656;9.810;2023-04-25T00:40:44;100454.88;;;8.23;83.42
4273;BME280;63887;53.656;9.810;2023-04-25T00:43:12;100447.81;;;8.07;83.66
4273;BME280;63887;53.656;9.810;2023-04-25T00:45:39;100457.22;;;7.93;83.12
4273;BME280;63887;53.656;9.810;2023-04-25T00:48:06;100462.53;;;7.72;83.37
4273;BME280;63887;53.656;9.810;2023-04-25T00:50:33;100464.31;;;7.91;84.50
4273;BME280;63887;53.656;9.810;2023-04-25T00:53:00;100470.94;;;7.79;84.95
4273;BME280;63887;53.656;9.810;2023-04-25T00:55:27;100469.06;;;8.00;82.74
4273;BME280;63887;53.656;9.810;2023-04-25T00:57:54;100482.75;;;8.05;82.78
4273;BME280;63887;53.656;9.810;2023-04-25T01:00:21;100476.03;;;7.82;82.79
4273;BME280;63887;53.656;9.810;2023-04-25T01:02:48;100475.38;;;8.13;82.59
4273;BME280;63887;53.656;9.810;2023-04-25T01:05:15;100468.69;;;7.90;82.40
4273;BME280;63887;53.656;9.810;2023-04-25T01:07:42;100478.34;;;7.69;83.76
4273;BME280;63887;53.656;9.810;2023-04-25T01:10:09;100476.31;;;8.12;82.57
4273;BME280;63887;53.656;9.810;2023-04-25T01:12:35;100477.81;;;7.99;82.56
4273;BME280;63887;53.656;9.810;2023-04-25T01:15:02;100477.03;;;7.97;81.64
4273;BME280;63887;53.656;9.810;2023-04-25T01:17:30;100476.88;;;7.83;81.59
4273;BME280;63887;53.656;9.810;2023-04-25T01:19:57;100476.72;;;7.86;81.82
4273;BME280;63887;53.656;9.810;2023-04-25T01:22:25;100474.94;;;7.86;80.90
4273;BME280;63887;53.656;9.810;2023-04-25T01:24:51;100472.34;;;7.86;79.69
4273;BME280;63887;53.656;9.810;2023-04-25T01:27:18;100477.44;;;7.70;81.74
4273;BME280;63887;53.656;9.810;2023-04-25T01:29:46;100473.25;;;7.85;81.34
4273;BME280;63887;53.656;9.810;2023-04-25T01:32:13;100473.25;;;7.85;77.89
4273;BME280;63887;53.656;9.810;2023-04-25T01:34:40;100476.47;;;7.54;79.74
4273;BME280;63887;53.656;9.810;2023-04-25T01:37:06;100481.06;;;7.49;78.01
4273;BME280;63887;53.656;9.810;2023-04-25T01:39:34;100490.28;;;7.56;76.96
4273;BME280;63887;53.656;9.810;2023-04-25T01:42:01;100485.00;;;7.58;76.39
4273;BME280;63887;53.656;9.810;2023-04-25T01:44:27;100481.34;;;7.62;76.25
4273;BME280;63887;53.656;9.810;2023-04-25T01:46:54;100487.19;;;7.48;74.86
4273;BME280;63887;53.656;9.810;2023-04-25T01:49:20;100489.03;;;7.46;75.41
4273;BME280;63887;53.656;9.810;2023-04-25T01:51:47;100489.53;;;7.54;77.94
4273;BME280;63887;53.656;9.810;2023-04-25T01:54:13;100487.81;;;7.53;75.88
4273;BME280;63887;53.656;9.810;2023-04-25T01:56:41;100486.63;;;7.41;77.27
4273;BME280;63887;53.656;9.810;2023-04-25T01:59:08;100487.97;;;7.31;76.70
4273;BME280;63887;53.656;9.810;2023-04-25T02:01:34;100495.44;;;7.20;78.25
4273;BME280;63887;53.656;9.810;2023-04-25T02:04:01;100482.75;;;7.50;75.83
4273;BME280;63887;53.656;9.810;2023-04-25T02:06:27;100496.44;;;7.36;76.81
4273;BME280;63887;53.656;9.810;2023-04-25T02:08:54;100500.59;;;7.40;75.38
4273;BME280;63887;53.656;9.810;2023-04-25T02:11:20;100501.44;;;7.22;78.12
4273;BME280;63887;53.656;9.810;2023-04-25T02:13:48;100496.91;;;7.07;78.02
4273;BME280;63887;53.656;9.810;2023-04-25T02:16:14;100504.09;;;7.21;76.92
4273;BME280;63887;53.656;9.810;2023-04-25T02:18:41;100510.31;;;7.18;79.51
4273;BME280;63887;53.656;9.810;2023-04-25T02:21:07;100499.50;;;7.07;79.00
4273;BME280;63887;53.656;9.810;2023-04-25T02:23:34;100508.38;;;7.03;78.57
4273;BME280;63887;53.656;9.810;2023-04-25T02:26:00;100506.31;;;6.91;81.42
4273;BME280;63887;53.656;9.810;2023-04-25T02:28:27;100518.16;;;6.98;82.75
4273;BME280;63887;53.656;9.810;2023-04-25T02:30:55;100527.41;;;7.05;79.52
4273;BME280;63887;53.656;9.810;2023-04-25T02:33:21;100529.44;;;7.37;75.31
4273;BME280;63887;53.656;9.810;2023-04-25T02:35:48;100532.88;;;7.38;73.36
4273;BME280;63887;53.656;9.810;2023-04-25T02:38:14;100524.59;;;7.48;72.72
4273;BME280;63887;53.656;9.810;2023-04-25T02:40:41;100529.72;;;7.50;74.18
4273;BME280;63887;53.656;9.810;2023-04-25T02:43:07;100525.88;;;7.20;74.96
4273;BME280;63887;53.656;9.810;2023-04-25T02:45:34;100532.19;;;7.34;74.33
4273;BME280;63887;53.656;9.810;2023-04-25T02:48:02;100524.13;;;7.20;72.35
4273;BME280;63887;53.656;9.810;2023-04-25T02:50:29;100534.22;;;7.28;73.82
4273;BME280;63887;53.656;9.810;2023-04-25T02:52:55;100529.56;;;7.15;73.63
4273;BME280;63887;53.656;9.810;2023-04-25T02:55:21;100524.22;;;7.37;72.19
4273;BME280;63887;53.656;9.810;2023-04-25T02:57:48;100524.94;;;7.02;73.98
4273;BME280;63887;53.656;9.810;2023-04-25T03:00:15;100519.47;;;7.27;72.43
4273;BME280;63887;53.656;9.810;2023-04-25T03:02:42;100518.78;;;7.23;70.90
4273;BME280;63887;53.656;9.810;2023-04-25T03:05:09;100518.56;;;7.28;69.23
4273;BME280;63887;53.656;9.810;2023-04-25T03:07:36;100520.97;;;6.93;71.45
4273;BME280;63887;53.656;9.810;2023-04-25T03:10:05;100518.06;;;6.99;68.70
4273;BME280;63887;53.656;9.810;2023-04-25T03:12:32;100525.72;;;6.83;70.47
4273;BME280;63887;53.656;9.810;2023-04-25T03:14:58;100523.38;;;6.77;70.70
4273;BME280;63887;53.656;9.810;2023-04-25T03:17:25;100533.97;;;6.52;72.54
4273;BME280;63887;53.656;9.810;2023-04-25T03:19:51;100531.22;;;6.57;71.10
4273;BME280;63887;53.656;9.810;2023-04-25T03:22:19;100531.00;;;6.41;72.33
4273;BME280;63887;53.656;9.810;2023-04-25T03:24:45;100538.47;;;6.49;71.44
4273;BME280;63887;53.656;9.810;2023-04-25T03:27:12;100540.44;;;6.44;71.42
4273;BME280;63887;53.656;9.810;2023-04-25T03:29:38;100546.16;;;6.32;70.52
4273;BME280;63887;53.656;9.810;2023-04-25T03:32:05;100550.50;;;6.31;70.76
4273;BME280;63887;53.656;9.810;2023-04-25T03:34:32;100550.22;;;6.59;69.08
4273;BME280;63887;53.656;9.810;2023-04-25T03:36:58;100553.97;;;6.32;69.55
4273;BME280;63887;53.656;9.810;2023-04-25T03:39:27;100557.06;;;5.97;72.64
4273;BME280;63887;53.656;9.810;2023-04-25T03:41:53;100565.94;;;5.92;73.40
4273;BME280;63887;53.656;9.810;2023-04-25T03:44:20;100562.41;;;5.93;72.51
4273;BME280;63887;53.656;9.810;2023-04-25T03:46:46;100572.06;;;6.13;72.48
4273;BME280;63887;53.656;9.810;2023-04-25T03:49:13;100571.09;;;6.15;70.99
4273;BME280;63887;53.656;9.810;2023-04-25T03:51:39;100567.00;;;6.52;69.39
4273;BME280;63887;53.656;9.810;2023-04-25T03:54:05;100555.59;;;6.54;67.64
4273;BME280;63887;53.656;9.810;2023-04-25T03:56:33;100558.38;;;6.30;70.26
4273;BME280;63887;53.656;9.810;2023-04-25T03:59:00;100570.38;;;6.12;71.57
4273;BME280;63887;53.656;9.810;2023-04-25T04:01:26;100566.88;;;6.13;70.21
4273;BME280;63887;53.656;9.810;2023-04-25T04:03:53;100568.91;;;6.05;68.83
4273;BME280;63887;53.656;9.810;2023-04-25T04:06:19;100572.94;;;6.13;70.42
4273;BME280;63887;53.656;9.810;2023-04-25T04:08:46;100567.50;;;5.73;72.25
4273;BME280;63887;53.656;9.810;2023-04-25T04:11:12;100569.53;;;5.64;72.83
4273;BME280;63887;53.656;9.810;2023-04-25T04:13:40;100573.06;;;5.63;71.73
4273;BME280;63887;53.656;9.810;2023-04-25T04:16:06;100585.44;;;5.80;72.66
4273;BME280;63887;53.656;9.810;2023-04-25T04:18:33;100582.88;;;5.79;73.76
4273;BME280;63887;53.656;9.810;2023-04-25T04:20:59;100583.16;;;5.96;72.22
4273;BME280;63887;53.656;9.810;2023-04-25T04:23:26;100591.44;;;5.82;73.57
4273;BME280;63887;53.656;9.810;2023-04-25T04:25:53;100585.97;;;5.90;72.53
4273;BME280;63887;53.656;9.810;2023-04-25T04:28:20;100592.66;;;5.97;71.82
4273;BME280;63887;53.656;9.810;2023-04-25T04:30:48;100591.22;;;6.12;71.29
4273;BME280;63887;53.656;9.810;2023-04-25T04:33:16;100593.44;;;6.21;69.61
4273;BME280;63887;53.656;9.810;2023-04-25T04:35:44;100593.44;;;6.21;69.60
4273;BME280;63887;53.656;9.810;2023-04-25T04:38:11;100602.38;;;5.92;71.81
4273;BME280;63887;53.656;9.810;2023-04-25T04:40:40;100601.47;;;5.93;71.84
4273;BME280;63887;53.656;9.810;2023-04-25T04:43:06;100603.25;;;6.14;70.07
4273;BME280;63887;53.656;9.810;2023-04-25T04:45:34;100608.69;;;6.08;71.59
4273;BME280;63887;53.656;9.810;2023-04-25T04:48:01;100611.66;;;6.21;70.34
4273;BME280;63887;53.656;9.810;2023-04-25T04:50:28;100618.88;;;6.36;70.12
4273;BME280;63887;53.656;9.810;2023-04-25T04:52:54;100623.53;;;6.06;70.68
4273;BME280;63887;53.656;9.810;2023-04-25T04:55:21;100638.03;;;6.35;71.75
4273;BME280;63887;53.656;9.810;2023-04-25T04:57:47;100648.44;;;6.13;71.18
4273;BME280;63887;53.656;9.810;2023-04-25T05:00:14;100647.59;;;6.35;71.84
4273;BME280;63887;53.656;9.810;2023-04-25T05:02:41;100640.31;;;6.21;74.77
4273;BME280;63887;53.656;9.810;2023-04-25T05:05:09;100642.28;;;6.38;74.33
4273;BME280;63887;53.656;9.810;2023-04-25T05:07:36;100635.38;;;6.37;75.87
4273;BME280;63887;53.656;9.810;2023-04-25T05:10:03;100640.25;;;6.22;76.06
4273;BME280;63887;53.656;9.810;2023-04-25T05:12:29;100644.72;;;6.42;75.69
4273;BME280;63887;53.656;9.810;2023-04-25T05:14:56;100644.53;;;6.02;78.26
4273;BME280;63887;53.656;9.810;2023-04-25T05:17:22;100643.09;;;6.16;77.62
4273;BME280;63887;53.656;9.810;2023-04-25T05:19:49;100649.75;;;6.25;77.46
4273;BME280;63887;53.656;9.810;2023-04-25T05:22:17;100660.50;;;6.38;78.04
4273;BME280;63887;53.656;9.810;2023-04-25T05:24:43;100657.59;;;6.23;79.14
4273;BME280;63887;53.656;9.810;2023-04-25T05:27:09;100656.06;;;6.18;79.90
4273;BME280;63887;53.656;9.810;2023-04-25T05:29:36;100660.38;;;6.19;79.25
4273;BME280;63887;53.656;9.810;2023-04-25T05:32:02;100666.81;;;6.54;78.35
4273;BME280;63887;53.656;9.810;2023-04-25T05:34:29;100665.81;;;6.58;77.65
4273;BME280;63887;53.656;9.810;2023-04-25T05:36:55;100661.13;;;6.66;76.48
4273;BME280;63887;53.656;9.810;2023-04-25T05:39:23;100666.41;;;6.43;78.50
4273;BME280;63887;53.656;9.810;2023-04-25T05:41:49;100668.34;;;6.60;77.72
4273;BME280;63887;53.656;9.810;2023-04-25T05:44:16;100661.34;;;6.82;76.45
4273;BME280;63887;53.656;9.810;2023-04-25T05:46:43;100667.00;;;6.71;76.92
4273;BME280;63887;53.656;9.810;2023-04-25T05:49:10;100660.81;;;6.74;76.43
4273;BME280;63887;53.656;9.810;2023-04-25T05:51:40;100668.53;;;6.97;74.56
4273;BME280;63887;53.656;9.810;2023-04-25T05:54:06;100665.63;;;7.05;74.66
4273;BME280;63887;53.656;9.810;2023-04-25T05:56:34;100668.66;;;6.94;71.56
4273;BME280;63887;53.656;9.810;2023-04-25T05:59:00;100666.72;;;6.99;73.45
4273;BME280;63887;53.656;9.810;2023-04-25T06:01:27;100677.38;;;7.15;70.96
4273;BME280;63887;53.656;9.810;2023-04-25T06:03:53;100678.31;;;6.92;72.48
4273;BME280;63887;53.656;9.810;2023-04-25T06:06:20;100681.00;;;7.11;72.44
4273;BME280;63887;53.656;9.810;2023-04-25T06:08:46;100686.38;;;7.48;70.13
4273;BME280;63887;53.656;9.810;2023-04-25T06:11:12;100690.03;;;7.24;72.50
4273;BME280;63887;53.656;9.810;2023-04-25T06:13:40;100683.72;;;7.30;72.45
4273;BME280;63887;53.656;9.810;2023-04-25T06:16:07;100687.97;;;7.10;72.90
4273;BME280;63887;53.656;9.810;2023-04-25T06:18:33;100690.50;;;6.92;73.66
4273;BME280;63887;53.656;9.810;2023-04-25T06:21:00;100684.78;;;7.04;73.48
4273;BME280;63887;53.656;9.810;2023-04-25T06:23:26;100697.13;;;7.21;72.51
4273;BME280;63887;53.656;9.810;2023-04-25T06:25:53;100692.66;;;7.44;72.97
4273;BME280;63887;53.656;9.810;2023-04-25T06:28:19;100690.34;;;7.37;73.85
4273;BME280;63887;53.656;9.810;2023-04-25T06:30:48;100699.03;;;7.37;72.08
4273;BME280;63887;53.656;9.810;2023-04-25T06:33:15;100690.88;;;7.65;71.12
4273;BME280;63887;53.656;9.810;2023-04-25T06:35:41;100689.09;;;7.66;71.82
4273;BME280;63887;53.656;9.810;2023-04-25T06:38:08;100694.22;;;7.88;71.67
4273;BME280;63887;53.656;9.810;2023-04-25T06:40:34;100702.97;;;7.87;70.74
4273;BME280;63887;53.656;9.810;2023-04-25T06:43:01;100696.06;;;7.86;71.93
4273;BME280;63887;53.656;9.810;2023-04-25T06:45:27;100698.34;;;7.93;71.03
4273;BME280;63887;53.656;9.810;2023-04-25T06:47:55;100703.72;;;7.90;70.32
4273;BME280;63887;53.656;9.810;2023-04-25T06:50:21;100704.81;;;7.85;70.52
4273;BME280;63887;53.656;9.810;2023-04-25T06:52:48;100709.09;;;8.06;68.08
4273;BME280;63887;53.656;9.810;2023-04-25T06:55:14;100699.19;;;8.31;66.15
4273;BME280;63887;53.656;9.810;2023-04-25T06:57:41;100706.56;;;8.04;67.70
4273;BME280;63887;53.656;9.810;2023-04-25T07:00:08;100706.19;;;7.73;70.23
4273;BME280;63887;53.656;9.810;2023-04-25T07:02:35;100716.06;;;7.66;69.76
4273;BME280;63887;53.656;9.810;2023-04-25T07:05:03;100730.75;;;7.69;69.55
4273;BME280;63887;53.656;9.810;2023-04-25T07:07:30;100734.75;;;7.96;68.69
4273;BME280;63887;53.656;9.810;2023-04-25T07:09:57;100737.41;;;7.76;69.06
4273;BME280;63887;53.656;9.810;2023-04-25T07:12:23;100733.47;;;7.86;69.18
4273;BME280;63887;53.656;9.810;2023-04-25T07:14:49;100729.50;;;7.37;69.87
4273;BME280;63887;53.656;9.810;2023-04-25T07:17:16;100735.69;;;7.34;70.34
4273;BME280;63887;53.656;9.810;2023-04-25T07:19:42;100736.22;;;7.63;69.86
4273;BME280;63887;53.656;9.810;2023-04-25T07:22:10;100731.06;;;7.41;70.89
4273;BME280;63887;53.656;9.810;2023-04-25T07:24:37;100726.91;;;7.77;70.55
4273;BME280;63887;53.656;9.810;2023-04-25T07:27:03;100735.28;;;7.43;71.84
4273;BME280;63887;53.656;9.810;2023-04-25T07:29:30;100729.81;;;7.90;70.88
4273;BME280;63887;53.656;9.810;2023-04-25T07:31:56;100733.22;;;8.11;69.78
4273;BME280;63887;53.656;9.810;2023-04-25T07:34:23;100735.91;;;8.10;69.62
4273;BME280;63887;53.656;9.810;2023-04-25T07:36:49;100735.81;;;7.92;70.94
4273;BME280;63887;53.656;9.810;2023-04-25T07:39:17;100728.63;;;8.36;69.44
4273;BME280;63887;53.656;9.810;2023-04-25T07:41:43;100727.28;;;8.65;71.58
4273;BME280;63887;53.656;9.810;2023-04-25T07:44:10;100729.53;;;9.09;67.47
4273;BME280;63887;53.656;9.810;2023-04-25T07:46:36;100723.81;;;9.18;67.57
4273;BME280;63887;53.656;9.810;2023-04-25T07:49:03;100733.09;;;9.43;65.95
4273;BME280;63887;53.656;9.810;2023-04-25T07:51:29;100743.38;;;9.11;67.21
4273;BME280;63887;53.656;9.810;2023-04-25T07:53:56;100744.00;;;8.61;68.76
4273;BME280;63887;53.656;9.810;2023-04-25T07:56:24;100754.84;;;9.09;67.67
4273;BME280;63887;53.656;9.810;2023-04-25T07:58:50;100751.94;;;8.79;70.61
4273;BME280;63887;53.656;9.810;2023-04-25T08:01:17;100760.13;;;8.52;70.01
4273;BME280;63887;53.656;9.810;2023-04-25T08:03:45;100759.75;;;8.60;70.99
4273;BME280;63887;53.656;9.810;2023-04-25T08:06:11;100765.91;;;8.59;70.50
4273;BME280;63887;53.656;9.810;2023-04-25T08:08:38;100768.16;;;8.48;71.21
4273;BME280;63887;53.656;9.810;2023-04-25T08:11:05;100764.44;;;8.33;70.74
4273;BME280;63887;53.656;9.810;2023-04-25T08:13:32;100772.41;;;8.11;71.70
4273;BME280;63887;53.656;9.810;2023-04-25T08:15:59;100767.91;;;8.35;70.72
4273;BME280;63887;53.656;9.810;2023-04-25T08:18:25;100762.91;;;8.49;69.62
4273;BME280;63887;53.656;9.810;2023-04-25T08:20:52;100772.34;;;8.71;67.85
4273;BME280;63887;53.656;9.810;2023-04-25T08:23:18;100781.88;;;8.72;69.10
4273;BME280;63887;53.656;9.810;2023-04-25T08:25:44;100769.31;;;8.42;69.25
4273;BME280;63887;53.656;9.810;2023-04-25T08:28:11;100779.69;;;8.44;69.37
4273;BME280;63887;53.656;9.810;2023-04-25T08:30:39;100791.94;;;8.23;70.57
4273;BME280;63887;53.656;9.810;2023-04-25T08:33:07;100787.69;;;8.20;70.90
4273;BME280;63887;53.656;9.810;2023-04-25T08:35:33;100793.19;;;8.34;70.07
4273;BME280;63887;53.656;9.810;2023-04-25T08:37:59;100785.34;;;8.33;69.93
4273;BME280;63887;53.656;9.810;2023-04-25T08:40:27;100790.38;;;8.39;69.39
4273;BME280;63887;53.656;9.810;2023-04-25T08:42:56;100796.66;;;8.73;69.21
4273;BME280;63887;53.656;9.810;2023-04-25T08:45:24;100792.16;;;9.12;68.61
4273;BME280;63887;53.656;9.810;2023-04-25T08:47:54;100799.50;;;9.23;68.28
4273;BME280;63887;53.656;9.810;2023-04-25T08:50:23;100797.59;;;9.44;66.63
4273;BME280;63887;53.656;9.810;2023-04-25T08:52:53;100815.91;;;9.26;66.10
4273;BME280;63887;53.656;9.810;2023-04-25T08:55:20;100823.69;;;9.28;68.38
4273;BME280;63887;53.656;9.810;2023-04-25T08:57:47;100827.47;;;9.40;66.05
4273;BME280;63887;53.656;9.810;2023-04-25T09:00:15;100839.00;;;9.36;63.71
4273;BME280;63887;53.656;9.810;2023-04-25T09:02:42;100835.50;;;9.54;62.80
4273;BME280;63887;53.656;9.810;2023-04-25T09:05:12;100840.06;;;9.85;59.30
4273;BME280;63887;53.656;9.810;2023-04-25T09:07:38;100829.28;;;9.91;60.38
4273;BME280;63887;53.656;9.810;2023-04-25T09:10:05;100833.44;;;10.12;61.65
4273;BME280;63887;53.656;9.810;2023-04-25T09:12:32;100832.03;;;10.05;61.98
4273;BME280;63887;53.656;9.810;2023-04-25T09:15:06;100831.81;;;10.27;62.46
4273;BME280;63887;53.656;9.810;2023-04-25T09:17:33;100839.28;;;10.35;62.22
4273;BME280;63887;53.656;9.810;2023-04-25T09:20:07;100839.09;;;10.38;59.04
4273;BME280;63887;53.656;9.810;2023-04-25T09:22:36;100866.88;;;10.25;60.83
4273;BME280;63887;53.656;9.810;2023-04-25T09:25:07;100895.47;;;9.41;65.69
4273;BME280;63887;53.656;9.810;2023-04-25T09:27:34;100900.25;;;8.75;72.80
4273;BME280;63887;53.656;9.810;2023-04-25T09:30:01;100892.00;;;8.25;74.81
4273;BME280;63887;53.656;9.810;2023-04-25T09:32:27;100890.75;;;7.93;77.47
4273;BME280;63887;53.656;9.810;2023-04-25T09:34:55;100896.19;;;8.29;75.94
4273;BME280;63887;53.656;9.810;2023-04-25T09:37:23;100897.88;;;8.30;77.34
4273;BME280;63887;53.656;9.810;2023-04-25T09:39:53;100894.00;;;8.40;79.37
4273;BME280;63887;53.656;9.810;2023-04-25T09:42:22;100880.78;;;9.01;76.52
4273;BME280;63887;53.656;9.810;2023-04-25T09:44:51;100887.09;;;9.52;80.73
4273;BME280;63887;53.656;9.810;2023-04-25T09:47:18;100878.88;;;9.77;76.58
4273;BME280;63887;53.656;9.810;2023-04-25T09:49:47;100887.50;;;9.62;70.67
4273;BME280;63887;53.656;9.810;2023-04-25T09:52:14;100890.34;;;9.57;72.39
4273;BME280;63887;53.656;9.810;2023-04-25T09:54:41;100892.75;;;9.96;68.79
4273;BME280;63887;53.656;9.810;2023-04-25T09:57:12;100900.34;;;9.85;66.43
4273;BME280;63887;53.656;9.810;2023-04-25T09:59:43;100890.53;;;9.89;67.80
4273;BME280;63887;53.656;9.810;2023-04-25T10:02:11;100895.88;;;10.04;63.37
4273;BME280;63887;53.656;9.810;2023-04-25T10:04:38;100910.81;;;10.20;62.16
4273;BME280;63887;53.656;9.810;2023-04-25T10:07:06;100908.50;;;10.13;58.18
4273;BME280;63887;53.656;9.810;2023-04-25T10:09:36;100903.88;;;10.19;58.79
4273;BME280;63887;53.656;9.810;2023-04-25T10:12:03;100897.03;;;9.99;63.27
4273;BME280;63887;53.656;9.810;2023-04-25T10:14:32;100902.03;;;10.21;59.08
4273;BME280;63887;53.656;9.810;2023-04-25T10:16:59;100899.84;;;10.11;58.65
4273;BME280;63887;53.656;9.810;2023-04-25T10:19:26;100914.53;;;9.98;61.78
4273;BME280;63887;53.656;9.810;2023-04-25T10:21:56;100922.00;;;10.06;64.93
4273;BME280;63887;53.656;9.810;2023-04-25T10:24:25;100904.66;;;10.38;63.43
4273;BME280;63887;53.656;9.810;2023-04-25T10:26:52;100909.28;;;10.15;60.33
4273;BME280;63887;53.656;9.810;2023-04-25T10:29:22;100902.19;;;10.18;62.59
4273;BME280;63887;53.656;9.810;2023-04-25T10:31:50;100906.34;;;10.04;58.13
4273;BME280;63887;53.656;9.810;2023-04-25T10:34:17;100892.63;;;10.16;60.40
4273;BME280;63887;53.656;9.810;2023-04-25T10:36:49;100901.56;;;10.47;61.74
4273;BME280;63887;53.656;9.810;2023-04-25T10:39:22;100905.97;;;10.47;57.41
4273;BME280;63887;53.656;9.810;2023-04-25T10:41:53;100914.28;;;10.20;57.82
4273;BME280;63887;53.656;9.810;2023-04-25T10:44:20;100913.53;;;10.18;56.43
4273;BME280;63887;53.656;9.810;2023-04-25T10:46:46;100916.41;;;10.31;55.16
4273;BME280;63887;53.656;9.810;2023-04-25T10:52:17;100933.13;;;10.45;55.78
4273;BME280;63887;53.656;9.810;2023-04-25T10:54:47;100922.94;;;10.22;53.61
4273;BME280;63887;53.656;9.810;2023-04-25T11:00:15;100935.13;;;9.51;58.69
4273;BME280;63887;53.656;9.810;2023-04-25T11:02:44;100953.13;;;9.21;59.02
4273;BME280;63887;53.656;9.810;2023-04-25T11:05:19;100953.41;;;8.96;60.80
4273;BME280;63887;53.656;9.810;2023-04-25T11:07:50;100949.84;;;8.78;61.26
4273;BME280;63887;53.656;9.810;2023-04-25T11:10:17;100947.09;;;8.81;62.03
4273;BME280;63887;53.656;9.810;2023-04-25T11:12:44;100953.75;;;9.07;61.15
4273;BME280;63887;53.656;9.810;2023-04-25T11:15:11;100944.00;;;9.30;60.91
4273;BME280;63887;53.656;9.810;2023-04-25T11:17:38;100945.13;;;9.62;60.31
4273;BME280;63887;53.656;9.810;2023-04-25T11:20:07;100944.25;;;9.61;61.00
4273;BME280;63887;53.656;9.810;2023-04-25T11:22:37;100942.88;;;9.54;60.10
4273;BME280;63887;53.656;9.810;2023-04-25T11:25:10;100954.75;;;9.42;58.74
4273;BME280;63887;53.656;9.810;2023-04-25T11:27:38;100945.97;;;9.62;59.74
4273;BME280;63887;53.656;9.810;2023-04-25T11:30:12;100944.59;;;9.72;59.14
4273;BME280;63887;53.656;9.810;2023-04-25T11:32:40;100951.22;;;9.79;55.02
4273;BME280;63887;53.656;9.810;2023-04-25T11:35:07;100944.22;;;9.80;57.64
4273;BME280;63887;53.656;9.810;2023-04-25T11:37:34;100946.19;;;10.11;57.63
4273;BME280;63887;53.656;9.810;2023-04-25T11:40:00;100946.25;;;10.09;53.97
4273;BME280;63887;53.656;9.810;2023-04-25T11:42:28;100950.13;;;10.02;54.91
4273;BME280;63887;53.656;9.810;2023-04-25T11:44:55;100954.97;;;10.10;54.58
4273;BME280;63887;53.656;9.810;2023-04-25T11:47:28;100957.88;;;10.23;54.05
4273;BME280;63887;53.656;9.810;2023-04-25T11:49:54;100953.44;;;10.06;51.62
4273;BME280;63887;53.656;9.810;2023-04-25T11:52:21;100963.47;;;10.15;50.87
4273;BME280;63887;53.656;9.810;2023-04-25T11:54:47;100963.97;;;10.23;50.00
4273;BME280;63887;53.656;9.810;2023-04-25T11:57:14;100964.72;;;10.25;50.41
4273;BME280;63887;53.656;9.810;2023-04-25T11:59:41;100979.41;;;10.29;52.63
4273;BME280;63887;53.656;9.810;2023-04-25T12:02:08;100968.44;;;10.38;51.41
4273;BME280;63887;53.656;9.810;2023-04-25T12:04:34;100976.84;;;10.28;51.65
4273;BME280;63887;53.656;9.810;2023-04-25T12:07:01;100980.41;;;10.08;50.98
4273;BME280;63887;53.656;9.810;2023-04-25T12:09:29;100989.91;;;9.74;51.31
4273;BME280;63887;53.656;9.810;2023-04-25T12:11:57;100993.91;;;9.81;52.14
4273;BME280;63887;53.656;9.810;2023-04-25T12:14:25;100988.84;;;9.78;54.27
4273;BME280;63887;53.656;9.810;2023-04-25T12:16:55;100987.72;;;9.84;52.40
4273;BME280;63887;53.656;9.810;2023-04-25T12:19:22;100995.50;;;9.67;53.10
4273;BME280;63887;53.656;9.810;2023-04-25T12:21:49;100995.69;;;9.81;54.55
4273;BME280;63887;53.656;9.810;2023-04-25T12:24:18;100992.03;;;9.85;53.47
4273;BME280;63887;53.656;9.810;2023-04-25T12:26:50;100986.81;;;10.02;53.39
4273;BME280;63887;53.656;9.810;2023-04-25T12:29:18;101006.63;;;10.27;51.79
4273;BME280;63887;53.656;9.810;2023-04-25T12:31:45;101003.22;;;10.06;50.60
4273;BME280;63887;53.656;9.810;2023-04-25T12:34:13;100999.00;;;10.03;51.47
4273;BME280;63887;53.656;9.810;2023-04-25T12:36:39;101039.56;;;9.95;55.48
4273;BME280;63887;53.656;9.810;2023-04-25T12:39:06;101027.78;;;9.86;57.41
4273;BME280;63887;53.656;9.810;2023-04-25T12:41:33;101042.72;;;9.84;58.26
4273;BME280;63887;53.656;9.810;2023-04-25T12:44:00;101049.94;;;9.60;56.00
4273;BME280;63887;53.656;9.810;2023-04-25T12:46:26;101043.72;;;9.44;57.23
4273;BME280;63887;53.656;9.810;2023-04-25T12:48:53;101047.88;;;9.48;57.29
4273;BME280;63887;53.656;9.810;2023-04-25T12:51:21;101058.72;;;9.59;56.06
4273;BME280;63887;53.656;9.810;2023-04-25T12:53:50;101038.59;;;9.97;55.39
4273;BME280;63887;53.656;9.810;2023-04-25T12:56:16;101043.56;;;10.21;55.50
4273;BME280;63887;53.656;9.810;2023-04-25T12:58:43;101048.28;;;10.14;53.62
4273;BME280;63887;53.656;9.810;2023-04-25T13:01:10;101072.66;;;9.78;56.96
4273;BME280;63887;53.656;9.810;2023-04-25T13:03:37;101085.28;;;9.31;63.99
4273;BME280;63887;53.656;9.810;2023-04-25T13:06:04;101088.06;;;8.87;66.00
4273;BME280;63887;53.656;9.810;2023-04-25T13:08:32;101077.38;;;8.92;67.68
4273;BME280;63887;53.656;9.810;2023-04-25T13:10:58;101087.69;;;8.96;65.90
4273;BME280;63887;53.656;9.810;2023-04-25T13:13:25;101072.88;;;8.55;65.63
4273;BME280;63887;53.656;9.810;2023-04-25T13:15:52;101070.25;;;8.55;65.52